createdAt,value
2022-10-12T00:02:02.471Z,70.80
2022-10-12T00:07:04.191Z,64.70
2022-10-12T00:12:06.013Z,69.90
2022-10-12T00:17:07.706Z,65.30
2022-10-12T00:22:09.436Z,66.40
2022-10-12T00:27:11.579Z,69.80
2022-10-12T00:32:13.251Z,69.40
2022-10-12T00:37:14.969Z,79.00
2022-10-12T00:42:20.624Z,67.50
2022-10-12T00:47:37.927Z,65.70
2022-10-12T00:52:49.987Z,61.70
2022-10-12T00:57:55.294Z,49.50
2022-10-12T01:02:58.180Z,44.40
2022-10-12T01:08:00.890Z,54.60
2022-10-12T01:13:03.649Z,51.00
2022-10-12T01:18:27.640Z,49.00
2022-10-12T01:23:38.572Z,44.40
2022-10-12T01:29:19.174Z,45.40
2022-10-12T01:34:33.288Z,45.30
2022-10-12T01:39:43.654Z,46.00
2022-10-12T01:44:45.329Z,47.20
2022-10-12T01:49:46.999Z,51.90
2022-10-12T01:55:02.929Z,51.30
2022-10-12T02:00:16.867Z,50.40
2022-10-12T02:05:45.874Z,50.40
2022-10-12T02:11:02.839Z,44.00
2022-10-12T02:16:10.463Z,43.70
2022-10-12T02:21:16.336Z,38.10
2022-10-12T02:26:19.716Z,36.50
2022-10-12T02:31:46.408Z,32.50
2022-10-12T02:37:07.347Z,31.40
2022-10-12T02:42:15.486Z,34.80
2022-10-12T02:47:19.107Z,37.50
2022-10-12T02:52:21.332Z,34.40
2022-10-12T02:57:23.163Z,38.30
2022-10-12T03:02:24.887Z,38.50
2022-10-12T03:07:26.665Z,37.70
2022-10-12T03:12:28.285Z,41.10
2022-10-12T03:17:30.081Z,36.40
2022-10-12T03:22:31.766Z,39.70
2022-10-12T03:27:33.409Z,37.00
2022-10-12T03:32:35.073Z,38.70
2022-10-12T03:37:37.142Z,39.60
2022-10-12T03:42:39.134Z,38.70
2022-10-12T03:47:41.132Z,36.80
2022-10-12T03:52:43.205Z,38.50
2022-10-12T03:57:45.896Z,35.40
2022-10-12T04:02:47.637Z,42.20
2022-10-12T04:07:49.863Z,38.50
2022-10-12T04:12:51.764Z,35.20
2022-10-12T04:17:53.466Z,37.10
2022-10-12T04:22:55.180Z,36.80
2022-10-12T04:27:56.867Z,41.20
2022-10-12T04:32:58.579Z,42.00
2022-10-12T04:38:00.279Z,41.20
2022-10-12T04:43:02.076Z,40.70
2022-10-12T04:48:03.970Z,51.10
2022-10-12T04:53:05.651Z,56.50
2022-10-12T04:58:07.352Z,62.50
2022-10-12T05:03:09.072Z,62.40
2022-10-12T05:08:10.719Z,57.90
2022-10-12T05:13:12.984Z,56.40
2022-10-12T05:18:14.690Z,59.80
2022-10-12T05:23:16.394Z,57.60
2022-10-12T05:28:18.109Z,55.50
2022-10-12T05:33:19.925Z,55.40
2022-10-12T05:38:21.752Z,51.80
2022-10-12T05:43:23.470Z,55.60
2022-10-12T05:48:25.144Z,49.40
2022-10-12T05:53:27.440Z,48.70
2022-10-12T05:58:30.612Z,47.20
2022-10-12T06:03:35.025Z,54.30
2022-10-12T06:08:37.324Z,44.50
2022-10-12T06:13:39.435Z,46.50
2022-10-12T06:18:41.212Z,49.00
2022-10-12T06:23:42.940Z,55.00
2022-10-12T06:28:44.744Z,48.50
2022-10-12T06:33:46.472Z,51.10
2022-10-12T06:38:48.196Z,50.80
2022-10-12T06:43:49.945Z,49.50
2022-10-12T06:48:51.643Z,37.00
2022-10-12T06:53:56.631Z,41.50
2022-10-12T06:58:58.429Z,43.00
2022-10-12T07:04:01.022Z,47.20
2022-10-12T07:09:02.905Z,35.20
2022-10-12T07:14:04.572Z,42.20
2022-10-12T07:19:06.541Z,48.00
2022-10-12T07:24:12.326Z,45.00
2022-10-12T07:29:13.971Z,46.00
2022-10-12T07:34:15.656Z,43.90
2022-10-12T07:39:17.535Z,42.50
2022-10-12T07:44:21.028Z,44.80
2022-10-12T07:49:22.958Z,34.20
2022-10-12T07:54:29.160Z,35.10
2022-10-12T07:59:31.251Z,45.40
2022-10-12T08:04:32.963Z,40.30
2022-10-12T08:09:36.232Z,43.00
2022-10-12T08:14:38.673Z,35.20
2022-10-12T08:19:40.608Z,37.50
2022-10-12T08:24:42.474Z,40.20
2022-10-12T08:29:44.245Z,33.30
2022-10-12T08:34:45.927Z,35.90
2022-10-12T08:39:47.716Z,32.40
2022-10-12T08:45:08.470Z,27.30
2022-10-12T08:50:18.568Z,33.20
2022-10-12T08:55:46.417Z,22.00
2022-10-12T09:00:57.489Z,20.60
2022-10-12T09:06:22.224Z,22.50
2022-10-12T09:11:33.793Z,21.60
2022-10-12T09:16:41.670Z,21.20
2022-10-12T09:21:46.235Z,22.20
2022-10-12T09:26:52.267Z,16.80
2022-10-12T09:32:20.447Z,21.40
2022-10-12T09:37:26.359Z,22.10
2022-10-12T09:42:28.056Z,18.60
2022-10-12T09:47:33.987Z,25.30
2022-10-12T09:52:35.622Z,22.70
2022-10-12T09:57:41.634Z,13.10
2022-10-12T10:02:51.603Z,13.50
2022-10-12T10:08:12.560Z,11.80
2022-10-12T10:13:15.806Z,7.00
2022-10-12T10:18:20.532Z,10.00
2022-10-12T10:23:28.715Z,12.30
2022-10-12T10:28:33.486Z,14.00
2022-10-12T10:33:37.168Z,12.60
2022-10-12T10:38:56.142Z,5.90
2022-10-12T10:43:57.935Z,16.90
2022-10-12T10:49:21.387Z,9.30
2022-10-12T10:54:22.990Z,5.20
2022-10-12T10:59:40.515Z,10.70
2022-10-12T11:04:45.858Z,9.40
2022-10-12T11:09:54.147Z,9.80
2022-10-12T11:15:04.475Z,8.20
2022-10-12T11:20:37.137Z,5.50
2022-10-12T11:25:54.258Z,7.90
2022-10-12T11:30:56.091Z,11.60
2022-10-12T11:35:58.850Z,7.70
2022-10-12T11:41:34.514Z,6.90
2022-10-12T11:46:47.740Z,6.40
2022-10-12T11:51:52.188Z,6.20
2022-10-12T11:56:58.553Z,8.40
2022-10-12T12:02:19.256Z,5.40
2022-10-12T12:07:49.749Z,6.00
2022-10-12T12:13:11.693Z,7.00
2022-10-12T12:18:44.335Z,6.20
2022-10-12T12:23:54.856Z,3.40
2022-10-12T12:29:27.980Z,4.90
2022-10-12T12:34:29.720Z,6.80
2022-10-12T12:39:34.848Z,6.80
2022-10-12T12:44:44.567Z,4.50
2022-10-12T12:49:57.478Z,11.80
2022-10-12T12:55:14.560Z,8.20
2022-10-12T13:00:23.439Z,4.20
2022-10-12T13:05:39.441Z,5.60
2022-10-12T13:11:10.388Z,5.20
2022-10-12T13:17:29.990Z,6.20
2022-10-12T13:21:56.828Z,8.10
2022-10-12T13:27:04.844Z,5.50
2022-10-12T13:32:22.149Z,10.10
2022-10-12T13:37:31.363Z,7.60
2022-10-12T13:42:35.968Z,8.40
2022-10-12T13:47:42.562Z,4.60
2022-10-12T13:52:53.702Z,8.60
2022-10-12T13:57:55.411Z,6.50
2022-10-12T14:03:02.925Z,7.20
2022-10-12T14:08:16.054Z,7.00
2022-10-12T14:13:28.702Z,9.90
2022-10-12T14:18:45.340Z,6.20
2022-10-12T14:23:49.838Z,5.40
2022-10-12T14:28:52.550Z,15.50
2022-10-12T14:33:54.567Z,8.70
2022-10-12T14:39:13.108Z,7.90
2022-10-12T14:44:15.928Z,6.90
2022-10-12T14:49:21.017Z,9.20
2022-10-12T14:54:22.700Z,5.70
2022-10-12T14:59:24.448Z,5.10
2022-10-12T15:04:26.203Z,7.20
2022-10-12T15:09:27.969Z,8.80
2022-10-12T15:14:29.677Z,6.60
2022-10-12T15:19:31.380Z,5.50
2022-10-12T15:24:33.140Z,7.80
2022-10-12T15:29:34.832Z,5.70
2022-10-12T15:34:36.604Z,5.80
2022-10-12T15:39:38.414Z,7.20
2022-10-12T15:44:41.066Z,5.20
2022-10-12T15:49:42.758Z,5.90
2022-10-12T15:54:48.714Z,9.50
2022-10-12T15:59:52.604Z,6.90
2022-10-12T16:04:54.323Z,7.00
2022-10-12T16:09:56.090Z,6.10
2022-10-12T16:14:57.812Z,5.00
2022-10-12T16:19:59.465Z,6.00
2022-10-12T16:25:03.281Z,5.60
2022-10-12T16:30:07.298Z,10.30
2022-10-12T16:35:10.704Z,12.20
2022-10-12T16:40:13.756Z,10.70
2022-10-12T16:45:15.513Z,6.50
2022-10-12T16:50:21.750Z,8.90
2022-10-12T16:55:23.429Z,16.40
2022-10-12T17:00:25.303Z,11.60
2022-10-12T17:05:26.976Z,10.40
2022-10-12T17:10:28.790Z,12.40
2022-10-12T17:15:30.578Z,8.50
2022-10-12T17:20:32.207Z,17.30
2022-10-12T17:25:33.975Z,26.20
2022-10-12T17:30:38.350Z,38.10
2022-10-12T17:35:41.554Z,35.50
2022-10-12T17:40:43.284Z,38.00
2022-10-12T17:45:45.003Z,37.70
2022-10-12T17:50:46.678Z,52.20
2022-10-12T17:55:49.184Z,47.70
2022-10-12T18:00:51.160Z,52.60
2022-10-12T18:05:53.031Z,48.60
2022-10-12T18:10:54.738Z,41.30
2022-10-12T18:15:57.807Z,41.20
2022-10-12T18:20:59.650Z,34.40
2022-10-12T18:26:03.819Z,34.00
2022-10-12T18:31:06.380Z,34.90
2022-10-12T18:36:08.388Z,38.60
2022-10-12T18:41:13.202Z,40.00
2022-10-12T18:46:18.257Z,41.30
2022-10-12T18:51:32.376Z,38.50
2022-10-12T18:56:36.843Z,41.00
2022-10-12T19:01:38.549Z,47.20
2022-10-12T19:06:45.806Z,46.30
2022-10-12T19:11:47.528Z,50.90
2022-10-12T19:16:50.888Z,55.30
2022-10-12T19:21:53.990Z,49.60
2022-10-12T19:26:55.940Z,55.80
2022-10-12T19:31:57.696Z,52.10
2022-10-12T19:37:00.713Z,51.40
2022-10-12T19:42:02.395Z,47.10
2022-10-12T19:47:04.256Z,50.80
2022-10-12T19:52:05.891Z,48.10
2022-10-12T19:57:07.582Z,40.70
2022-10-12T20:02:10.574Z,39.10
2022-10-12T20:07:12.707Z,32.90
2022-10-12T20:12:14.464Z,30.00
2022-10-12T20:17:16.198Z,32.90
2022-10-12T20:22:18.796Z,29.50
2022-10-12T20:27:20.800Z,29.10
2022-10-12T20:32:22.500Z,17.20
2022-10-12T20:37:24.326Z,29.70
2022-10-12T20:42:26.689Z,30.40
2022-10-12T20:47:28.640Z,30.90
2022-10-12T20:52:30.357Z,27.10
2022-10-12T20:57:32.167Z,24.60
2022-10-12T21:02:33.896Z,27.70
2022-10-12T21:07:36.243Z,27.90
2022-10-12T21:12:38.019Z,27.20
2022-10-12T21:17:45.025Z,27.30
2022-10-12T21:22:46.735Z,26.20
2022-10-12T21:27:48.536Z,25.80
2022-10-12T21:32:50.208Z,29.70
2022-10-12T21:37:52.743Z,28.30
2022-10-12T21:42:54.469Z,29.70
2022-10-12T21:47:56.227Z,24.70
2022-10-12T21:53:02.168Z,23.70
2022-10-12T21:58:03.876Z,25.20
2022-10-12T22:03:05.756Z,26.00
2022-10-12T22:08:08.291Z,27.10
2022-10-12T22:13:10.143Z,34.50
2022-10-12T22:18:12.559Z,32.90
2022-10-12T22:23:14.374Z,33.90
2022-10-12T22:28:16.589Z,31.60
2022-10-12T22:33:18.469Z,29.70
2022-10-12T22:38:20.892Z,34.00
2022-10-12T22:43:22.928Z,32.20
2022-10-12T22:48:25.279Z,31.10
2022-10-12T22:53:29.359Z,33.00
2022-10-12T22:58:31.885Z,30.50
2022-10-12T23:03:34.945Z,30.50
2022-10-12T23:08:40.595Z,30.80
2022-10-12T23:13:48.436Z,31.20
2022-10-12T23:19:01.717Z,30.80
2022-10-12T23:24:06.693Z,30.60
2022-10-12T23:29:08.389Z,29.80
2022-10-12T23:34:15.995Z,30.30
2022-10-12T23:39:19.091Z,27.00
2022-10-12T23:44:20.871Z,31.60
2022-10-12T23:49:22.654Z,34.80
2022-10-12T23:54:26.035Z,31.30
2022-10-12T23:59:27.700Z,33.10
